createdAt,value
2023-03-01T00:00:21.587Z,74.50
2023-03-01T00:02:23.537Z,79.38
2023-03-01T00:04:25.304Z,70.53
2023-03-01T00:06:31.167Z,69.10
2023-03-01T00:08:33.971Z,76.43
2023-03-01T00:10:35.480Z,76.13
2023-03-01T00:12:37.657Z,72.95
2023-03-01T00:14:39.241Z,81.82
2023-03-01T00:16:42.662Z,76.30
2023-03-01T00:18:45.202Z,66.43
2023-03-01T00:20:53.972Z,60.80
2023-03-01T00:22:55.488Z,50.67
2023-03-01T00:24:57.092Z,72.05
2023-03-01T00:26:58.846Z,71.88
2023-03-01T00:29:01.420Z,74.90
2023-03-01T00:31:07.324Z,64.63
2023-03-01T00:33:08.937Z,65.75
2023-03-01T00:35:10.618Z,70.07
2023-03-01T00:37:12.106Z,65.22
2023-03-01T00:39:16.001Z,68.80
2023-03-01T00:41:19.222Z,69.85
2023-03-01T00:43:21.065Z,67.50
2023-03-01T00:45:23.000Z,63.45
2023-03-01T00:47:24.525Z,66.30
2023-03-01T00:49:28.646Z,68.72
2023-03-01T00:51:30.395Z,69.85
2023-03-01T00:53:31.914Z,71.55
2023-03-01T00:55:33.502Z,73.75
2023-03-01T00:57:35.289Z,73.40
2023-03-01T00:59:36.786Z,71.05
2023-03-01T01:01:38.389Z,77.28
2023-03-01T01:03:39.908Z,76.07
2023-03-01T01:05:41.422Z,82.40
2023-03-01T01:07:42.942Z,75.75
2023-03-01T01:09:44.448Z,69.57
2023-03-01T01:11:52.059Z,70.13
2023-03-01T01:13:54.136Z,68.57
2023-03-01T01:15:55.644Z,68.15
2023-03-01T01:17:57.154Z,75.15
2023-03-01T01:19:58.668Z,88.70
2023-03-01T01:22:00.215Z,86.65
2023-03-01T01:24:04.355Z,75.75
2023-03-01T01:26:12.262Z,77.88
2023-03-01T01:28:13.814Z,84.60
2023-03-01T01:30:15.464Z,71.95
2023-03-01T01:32:17.069Z,67.97
2023-03-01T01:34:21.962Z,67.00
2023-03-01T01:36:23.724Z,68.18
2023-03-01T01:38:25.768Z,68.28
2023-03-01T01:40:27.276Z,74.03
2023-03-01T01:42:28.838Z,72.72
2023-03-01T01:44:30.639Z,83.40
2023-03-01T01:46:35.004Z,81.82
2023-03-01T01:48:42.934Z,85.95
2023-03-01T01:50:46.090Z,74.03
2023-03-01T01:52:51.862Z,73.43
2023-03-01T01:55:19.901Z,73.05
2023-03-01T01:57:35.061Z,63.97
2023-03-01T01:59:37.936Z,63.80
2023-03-01T02:01:39.635Z,61.22
2023-03-01T02:03:44.292Z,61.60
2023-03-01T02:05:55.839Z,69.25
2023-03-01T02:07:59.602Z,68.18
2023-03-01T02:10:01.864Z,75.35
2023-03-01T02:12:05.299Z,67.80
2023-03-01T02:14:07.406Z,66.70
2023-03-01T02:16:15.308Z,67.35
2023-03-01T02:18:19.671Z,63.13
2023-03-01T02:20:31.594Z,63.35
2023-03-01T02:22:35.255Z,61.33
2023-03-01T02:24:55.736Z,65.40
2023-03-01T02:26:58.724Z,64.88
2023-03-01T02:29:00.543Z,64.25
2023-03-01T02:31:22.874Z,63.60
2023-03-01T02:33:25.735Z,57.45
2023-03-01T02:35:27.274Z,56.10
2023-03-01T02:37:28.942Z,56.80
2023-03-01T02:39:35.279Z,54.55
2023-03-01T02:41:38.912Z,53.47
2023-03-01T02:43:40.635Z,56.72
2023-03-01T02:45:53.718Z,58.63
2023-03-01T02:47:58.610Z,57.22
2023-03-01T02:50:00.348Z,60.83
2023-03-01T02:52:31.656Z,58.55
2023-03-01T02:54:41.906Z,59.45
2023-03-01T02:56:44.152Z,60.20
2023-03-01T02:58:46.604Z,57.90
2023-03-01T03:00:50.430Z,58.53
2023-03-01T03:02:53.929Z,56.53
2023-03-01T03:04:55.422Z,55.28
2023-03-01T03:06:57.155Z,56.28
2023-03-01T03:08:58.914Z,55.95
2023-03-01T03:11:00.468Z,52.78
2023-03-01T03:13:08.577Z,49.88
2023-03-01T03:15:13.683Z,45.60
2023-03-01T03:17:15.342Z,51.13
2023-03-01T03:19:18.355Z,53.08
2023-03-01T03:21:19.862Z,72.22
2023-03-01T03:23:24.775Z,92.63
2023-03-01T03:25:28.740Z,75.20
2023-03-01T03:27:30.234Z,71.15
2023-03-01T03:29:32.021Z,70.40
2023-03-01T03:31:33.736Z,70.90
2023-03-01T03:33:35.343Z,66.53
2023-03-01T03:35:46.553Z,63.15
2023-03-01T03:38:03.746Z,55.40
2023-03-01T03:40:16.227Z,53.97
2023-03-01T03:42:17.805Z,53.85
2023-03-01T03:44:19.345Z,59.15
2023-03-01T03:46:20.913Z,64.22
2023-03-01T03:48:22.486Z,63.97
2023-03-01T03:50:23.958Z,72.85
2023-03-01T03:52:25.455Z,72.18
2023-03-01T03:54:26.957Z,74.95
2023-03-01T03:56:28.989Z,75.75
2023-03-01T03:58:30.598Z,80.55
2023-03-01T04:00:32.106Z,71.57
2023-03-01T04:02:33.699Z,75.85
2023-03-01T04:04:35.657Z,75.93
2023-03-01T04:06:37.196Z,77.68
2023-03-01T04:08:38.758Z,75.82
2023-03-01T04:10:42.524Z,73.55
2023-03-01T04:12:44.267Z,69.97
2023-03-01T04:14:47.949Z,72.55
2023-03-01T04:16:49.738Z,71.28
2023-03-01T04:18:51.667Z,72.82
2023-03-01T04:20:56.322Z,74.60
2023-03-01T04:23:11.678Z,76.03
2023-03-01T04:25:15.064Z,70.65
2023-03-01T04:27:16.712Z,72.85
2023-03-01T04:29:18.200Z,68.88
2023-03-01T04:31:22.641Z,73.32
2023-03-01T04:33:26.090Z,80.05
2023-03-01T04:35:27.696Z,84.28
2023-03-01T04:37:29.232Z,84.40
2023-03-01T04:39:30.756Z,84.45
2023-03-01T04:41:32.323Z,85.43
2023-03-01T04:43:35.110Z,77.70
2023-03-01T04:45:37.059Z,77.18
2023-03-01T04:47:39.291Z,75.38
2023-03-01T04:49:40.782Z,75.43
2023-03-01T04:51:42.385Z,76.47
2023-03-01T04:53:45.063Z,80.07
2023-03-01T04:55:46.776Z,83.53
2023-03-01T04:57:49.368Z,78.03
2023-03-01T04:59:50.853Z,84.00
2023-03-01T05:01:56.512Z,75.55
2023-03-01T05:04:04.055Z,81.00
2023-03-01T05:06:05.910Z,91.00
2023-03-01T05:08:09.128Z,90.63
2023-03-01T05:10:11.170Z,86.65
2023-03-01T05:12:14.175Z,83.93
2023-03-01T05:14:15.878Z,82.78
2023-03-01T05:16:17.958Z,95.00
2023-03-01T05:18:19.475Z,114.20
2023-03-01T05:20:23.925Z,101.25
2023-03-01T05:22:25.506Z,111.90
2023-03-01T05:24:27.845Z,108.85
2023-03-01T05:26:29.707Z,89.28
2023-03-01T05:28:31.772Z,76.68
2023-03-01T05:30:34.866Z,72.80
2023-03-01T05:32:36.370Z,78.38
2023-03-01T05:34:38.030Z,77.45
2023-03-01T05:36:39.567Z,68.80
2023-03-01T05:38:41.116Z,63.40
2023-03-01T05:40:47.083Z,61.53
2023-03-01T05:42:51.058Z,60.88
2023-03-01T05:44:52.589Z,60.97
2023-03-01T05:46:54.327Z,59.35
2023-03-01T05:48:56.392Z,63.40
2023-03-01T05:51:01.415Z,61.20
2023-03-01T05:53:06.799Z,62.38
2023-03-01T05:55:08.894Z,63.20
2023-03-01T05:57:11.221Z,66.38
2023-03-01T05:59:13.294Z,76.88
2023-03-01T06:01:14.862Z,73.20
2023-03-01T06:03:18.249Z,66.65
2023-03-01T06:05:19.837Z,62.80
2023-03-01T06:07:21.409Z,68.72
2023-03-01T06:09:22.887Z,68.43
2023-03-01T06:11:24.500Z,61.35
2023-03-01T06:13:26.190Z,60.03
2023-03-01T06:15:27.814Z,54.35
2023-03-01T06:17:38.372Z,51.85
2023-03-01T06:19:39.918Z,49.55
2023-03-01T06:21:41.475Z,49.50
2023-03-01T06:23:42.947Z,48.40
2023-03-01T06:25:44.478Z,46.10
2023-03-01T06:27:46.717Z,45.33
2023-03-01T06:29:48.198Z,46.10
2023-03-01T06:31:50.234Z,44.25
2023-03-01T06:33:51.932Z,48.40
2023-03-01T06:35:57.045Z,51.85
2023-03-01T06:38:01.449Z,53.65
2023-03-01T06:40:12.568Z,56.25
2023-03-01T06:42:15.278Z,66.47
2023-03-01T06:44:16.886Z,58.17
2023-03-01T06:46:18.557Z,73.93
2023-03-01T06:48:20.081Z,81.05
2023-03-01T06:50:21.751Z,69.38
2023-03-01T06:52:23.447Z,68.45
2023-03-01T06:54:25.089Z,55.20
2023-03-01T06:56:26.619Z,55.17
2023-03-01T06:58:28.304Z,53.28
2023-03-01T07:00:30.086Z,54.20
2023-03-01T07:02:31.782Z,55.53
2023-03-01T07:04:33.364Z,56.25
2023-03-01T07:06:35.049Z,57.63
2023-03-01T07:08:36.593Z,64.35
2023-03-01T07:10:38.402Z,67.57
2023-03-01T07:12:40.054Z,62.80
2023-03-01T07:14:41.829Z,63.25
2023-03-01T07:16:43.430Z,63.20
2023-03-01T07:18:44.935Z,68.40
2023-03-01T07:20:46.436Z,76.40
2023-03-01T07:22:47.970Z,70.20
2023-03-01T07:24:49.584Z,65.57
2023-03-01T07:26:52.415Z,64.40
2023-03-01T07:28:53.913Z,68.18
2023-03-01T07:30:55.541Z,67.97
2023-03-01T07:32:58.710Z,65.00
2023-03-01T07:35:00.301Z,66.00
2023-03-01T07:37:01.860Z,64.03
2023-03-01T07:39:04.182Z,106.05
2023-03-01T07:41:06.772Z,121.70
2023-03-01T07:43:08.307Z,87.43
2023-03-01T07:45:10.341Z,65.15
2023-03-01T07:47:11.863Z,62.13
2023-03-01T07:49:13.530Z,77.25
2023-03-01T07:51:15.331Z,64.10
2023-03-01T07:53:16.845Z,68.30
2023-03-01T07:55:18.426Z,71.25
2023-03-01T07:57:19.916Z,73.63
2023-03-01T07:59:21.525Z,73.72
2023-03-01T08:01:23.151Z,72.63
2023-03-01T08:03:24.929Z,66.22
2023-03-01T08:05:26.468Z,58.72
2023-03-01T08:07:28.072Z,64.25
2023-03-01T08:09:29.650Z,61.80
2023-03-01T08:11:31.306Z,93.97
2023-03-01T08:13:33.530Z,63.25
2023-03-01T08:15:35.141Z,75.03
2023-03-01T08:17:36.711Z,63.85
2023-03-01T08:19:38.236Z,56.22
2023-03-01T08:21:40.004Z,57.28
2023-03-01T08:23:42.776Z,72.68
2023-03-01T08:25:44.547Z,96.63
2023-03-01T08:27:46.028Z,47.05
2023-03-01T08:29:47.787Z,34.55
2023-03-01T08:31:49.583Z,46.00
2023-03-01T08:33:56.225Z,50.42
2023-03-01T08:36:07.950Z,97.88
2023-03-01T08:38:09.814Z,71.18
2023-03-01T08:40:12.076Z,55.38
2023-03-01T08:42:13.572Z,49.53
2023-03-01T08:44:17.808Z,51.85
2023-03-01T08:46:19.639Z,51.75
2023-03-01T08:48:21.364Z,47.40
2023-03-01T08:50:23.846Z,48.63
2023-03-01T08:52:25.557Z,41.60
2023-03-01T08:54:27.079Z,48.85
2023-03-01T08:56:28.911Z,80.80
2023-03-01T08:58:30.945Z,48.88
2023-03-01T09:00:35.913Z,41.97
2023-03-01T09:02:38.159Z,86.90
2023-03-01T09:04:40.693Z,28.25
2023-03-01T09:06:43.095Z,22.17
2023-03-01T09:08:50.204Z,95.45
2023-03-01T09:10:51.807Z,69.78
2023-03-01T09:12:53.650Z,207.50
2023-03-01T09:14:56.336Z,44.03
2023-03-01T09:16:58.053Z,169.38
2023-03-01T09:18:59.567Z,158.15
2023-03-01T09:21:08.200Z,34.05
2023-03-01T09:23:09.843Z,32.88
2023-03-01T09:25:11.370Z,30.50
2023-03-01T09:27:13.892Z,109.32
2023-03-01T09:29:17.018Z,116.50
2023-03-01T09:31:20.736Z,37.22
2023-03-01T09:33:22.301Z,37.58
2023-03-01T09:35:24.617Z,27.10
2023-03-01T09:37:26.179Z,30.52
2023-03-01T09:39:27.770Z,34.25
2023-03-01T09:41:50.714Z,30.15
2023-03-01T09:43:56.792Z,28.95
2023-03-01T09:46:05.153Z,25.15
2023-03-01T09:48:14.449Z,27.73
2023-03-01T09:50:19.425Z,26.85
2023-03-01T09:53:03.601Z,27.92
2023-03-01T09:55:14.377Z,29.90
2023-03-01T09:57:21.893Z,28.05
2023-03-01T09:59:49.540Z,20.98
2023-03-01T10:02:41.805Z,22.60
2023-03-01T10:04:50.107Z,26.52
2023-03-01T10:07:17.982Z,20.48
2023-03-01T10:09:20.250Z,24.48
2023-03-01T10:11:27.959Z,29.98
2023-03-01T10:13:43.869Z,28.65
2023-03-01T10:15:51.137Z,24.38
2023-03-01T10:18:08.743Z,29.65
2023-03-01T10:20:27.004Z,22.15
2023-03-01T10:22:32.459Z,22.58
2023-03-01T10:24:37.057Z,20.80
2023-03-01T10:26:48.239Z,18.15
2023-03-01T10:29:05.110Z,19.40
2023-03-01T10:31:15.996Z,24.08
2023-03-01T10:33:28.859Z,25.77
2023-03-01T10:35:34.584Z,25.88
2023-03-01T10:37:46.696Z,25.05
2023-03-01T10:40:10.236Z,21.02
2023-03-01T10:42:28.614Z,20.48
2023-03-01T10:44:42.671Z,19.95
2023-03-01T10:46:44.261Z,35.75
2023-03-01T10:48:45.951Z,22.83
2023-03-01T10:50:50.357Z,22.98
2023-03-01T10:53:01.510Z,20.58
2023-03-01T10:55:18.399Z,18.77
2023-03-01T10:57:30.549Z,20.17
2023-03-01T10:59:37.270Z,20.48
2023-03-01T11:01:38.875Z,20.17
2023-03-01T11:03:40.522Z,19.73
2023-03-01T11:05:54.453Z,21.13
2023-03-01T11:07:58.606Z,18.00
2023-03-01T11:10:00.199Z,22.63
2023-03-01T11:12:01.956Z,18.10
2023-03-01T11:14:26.727Z,15.95
2023-03-01T11:16:37.530Z,18.52
2023-03-01T11:18:47.646Z,16.35
2023-03-01T11:20:54.127Z,15.80
2023-03-01T11:22:59.543Z,16.15
2023-03-01T11:25:10.090Z,14.45
2023-03-01T11:27:28.795Z,15.20
2023-03-01T11:29:48.391Z,14.77
2023-03-01T11:31:57.629Z,14.23
2023-03-01T11:34:07.969Z,14.10
2023-03-01T11:40:34.798Z,15.07
2023-03-01T11:42:46.749Z,15.10
2023-03-01T11:44:53.419Z,15.45
2023-03-01T11:47:13.811Z,15.27
2023-03-01T11:49:33.203Z,15.82
2023-03-01T11:51:56.902Z,16.88
2023-03-01T11:54:07.411Z,14.55
2023-03-01T11:56:26.339Z,16.75
2023-03-01T11:58:58.243Z,18.15
2023-03-01T12:01:08.840Z,16.35
2023-03-01T12:03:32.051Z,16.85
2023-03-01T12:05:42.843Z,16.27
2023-03-01T12:08:02.448Z,25.77
2023-03-01T12:10:30.339Z,24.02
2023-03-01T12:12:41.508Z,16.73
2023-03-01T12:15:07.401Z,16.98
2023-03-01T12:17:27.448Z,17.85
2023-03-01T12:19:47.062Z,18.25
2023-03-01T12:21:57.672Z,14.30
2023-03-01T12:24:26.931Z,18.25
2023-03-01T12:26:54.350Z,15.65
2023-03-01T12:29:26.930Z,15.90
2023-03-01T12:31:29.396Z,14.98
2023-03-01T12:33:33.924Z,16.20
2023-03-01T12:35:44.326Z,16.92
2023-03-01T12:37:55.426Z,17.55
2023-03-01T12:40:22.189Z,19.58
2023-03-01T12:42:41.778Z,16.48
2023-03-01T12:45:00.664Z,25.88
2023-03-01T12:47:14.436Z,14.80
2023-03-01T12:49:24.724Z,16.50
2023-03-01T12:51:33.147Z,13.63
2023-03-01T12:53:46.346Z,13.07
2023-03-01T12:55:48.847Z,17.25
2023-03-01T12:57:58.956Z,13.65
2023-03-01T13:00:21.057Z,16.85
2023-03-01T13:02:38.783Z,14.07
2023-03-01T13:04:53.534Z,13.55
2023-03-01T13:07:24.687Z,14.48
2023-03-01T13:09:53.897Z,14.27
2023-03-01T13:11:55.433Z,14.25
2023-03-01T13:14:32.191Z,16.50
2023-03-01T13:16:41.136Z,15.35
2023-03-01T13:18:42.869Z,10.37
2023-03-01T13:20:52.780Z,12.45
2023-03-01T13:23:12.364Z,14.80
2023-03-01T13:25:24.305Z,15.68
2023-03-01T13:27:30.826Z,15.82
2023-03-01T13:29:53.197Z,16.27
2023-03-01T13:31:54.905Z,16.67
2023-03-01T13:34:00.800Z,20.38
2023-03-01T13:36:02.597Z,25.80
2023-03-01T13:38:42.312Z,21.35
2023-03-01T13:40:53.027Z,21.98
2023-03-01T13:43:05.424Z,23.67
2023-03-01T13:45:33.917Z,29.65
2023-03-01T13:47:37.410Z,20.75
2023-03-01T13:49:51.806Z,18.52
2023-03-01T13:51:53.479Z,23.02
2023-03-01T13:53:58.702Z,20.88
2023-03-01T13:56:07.788Z,19.67
2023-03-01T13:58:33.088Z,22.02
2023-03-01T14:00:40.205Z,23.00
2023-03-01T14:02:42.505Z,22.10
2023-03-01T14:04:47.546Z,19.83
2023-03-01T14:06:49.176Z,21.75
2023-03-01T14:08:53.836Z,21.48
2023-03-01T14:11:21.337Z,17.58
2023-03-01T14:13:44.898Z,17.98
2023-03-01T14:16:00.761Z,16.25
2023-03-01T14:18:11.704Z,18.42
2023-03-01T14:20:36.421Z,15.38
2023-03-01T14:22:41.673Z,17.55
2023-03-01T14:24:53.329Z,14.98
2023-03-01T14:26:55.030Z,16.25
2023-03-01T14:28:57.095Z,20.73
2023-03-01T14:31:00.830Z,76.13
2023-03-01T14:33:06.579Z,37.90
2023-03-01T14:35:25.782Z,46.40
2023-03-01T14:37:33.890Z,16.27
2023-03-01T14:39:35.778Z,23.75
2023-03-01T14:41:37.650Z,19.63
2023-03-01T14:43:42.515Z,10.77
2023-03-01T14:45:49.404Z,15.27
2023-03-01T14:47:51.921Z,13.43
2023-03-01T14:49:59.603Z,12.13
2023-03-01T14:52:05.634Z,13.23
2023-03-01T14:54:21.984Z,14.63
2023-03-01T14:56:23.650Z,12.40
2023-03-01T14:58:26.444Z,12.05
2023-03-01T15:00:30.559Z,14.20
2023-03-01T15:02:33.901Z,17.20
2023-03-01T15:04:35.751Z,11.07
2023-03-01T15:06:39.233Z,15.73
2023-03-01T15:08:48.091Z,64.38
2023-03-01T15:11:09.231Z,49.93
2023-03-01T15:13:21.686Z,15.48
2023-03-01T15:15:27.787Z,16.00
2023-03-01T15:17:33.284Z,12.75
2023-03-01T15:19:34.950Z,14.50
2023-03-01T15:21:39.141Z,16.05
2023-03-01T15:23:41.306Z,48.83
2023-03-01T15:25:46.448Z,38.97
2023-03-01T15:27:49.556Z,38.72
2023-03-01T15:30:03.224Z,13.07
2023-03-01T15:32:21.796Z,20.55
2023-03-01T15:34:26.321Z,12.95
2023-03-01T15:36:38.539Z,15.15
2023-03-01T15:38:55.473Z,31.88
2023-03-01T15:40:58.424Z,91.28
2023-03-01T15:43:05.072Z,52.88
2023-03-01T15:45:13.026Z,42.20
2023-03-01T15:47:32.944Z,21.23
2023-03-01T15:49:46.503Z,42.17
2023-03-01T15:51:55.950Z,40.88
2023-03-01T15:54:00.685Z,13.32
2023-03-01T15:56:02.225Z,52.47
2023-03-01T15:58:11.215Z,20.35
2023-03-01T16:00:16.127Z,28.45
2023-03-01T16:02:17.849Z,24.90
2023-03-01T16:04:24.235Z,15.95
2023-03-01T16:06:26.221Z,39.72
2023-03-01T16:08:27.769Z,30.38
2023-03-01T16:10:30.154Z,26.58
2023-03-01T16:12:31.664Z,26.08
2023-03-01T16:14:33.150Z,24.42
2023-03-01T16:16:35.695Z,24.05
2023-03-01T16:18:37.395Z,19.55
2023-03-01T16:20:39.058Z,20.95
2023-03-01T16:22:41.102Z,25.27
2023-03-01T16:24:42.627Z,30.75
2023-03-01T16:26:44.229Z,38.72
2023-03-01T16:28:46.599Z,40.22
2023-03-01T16:30:49.730Z,33.58
2023-03-01T16:32:52.287Z,32.92
2023-03-01T16:34:54.052Z,31.23
2023-03-01T16:36:55.578Z,32.78
2023-03-01T16:39:01.543Z,31.65
2023-03-01T16:41:03.262Z,31.63
2023-03-01T16:43:04.846Z,122.90
2023-03-01T16:45:18.409Z,67.95
2023-03-01T16:47:24.815Z,37.72
2023-03-01T16:49:26.570Z,27.25
2023-03-01T16:51:28.101Z,40.85
2023-03-01T16:53:29.927Z,32.05
2023-03-01T16:55:31.464Z,35.28
2023-03-01T16:57:35.170Z,29.80
2023-03-01T16:59:38.207Z,100.13
2023-03-01T17:01:41.955Z,65.40
2023-03-01T17:03:45.243Z,94.78
2023-03-01T17:05:46.816Z,37.10
2023-03-01T17:07:48.317Z,30.92
2023-03-01T17:09:49.843Z,29.77
2023-03-01T17:11:51.431Z,28.67
2023-03-01T17:13:53.219Z,25.23
2023-03-01T17:15:54.981Z,25.95
2023-03-01T17:17:57.070Z,24.08
2023-03-01T17:19:59.027Z,27.60
2023-03-01T17:22:01.254Z,30.08
2023-03-01T17:24:04.024Z,30.15
2023-03-01T17:26:06.007Z,33.38
2023-03-01T17:28:07.546Z,33.40
2023-03-01T17:30:12.676Z,30.17
2023-03-01T17:32:14.418Z,27.88
2023-03-01T17:34:16.558Z,27.52
2023-03-01T17:36:18.559Z,29.42
2023-03-01T17:38:20.146Z,33.95
2023-03-01T17:40:21.806Z,36.38
2023-03-01T17:42:23.427Z,40.05
2023-03-01T17:44:25.175Z,42.03
2023-03-01T17:46:27.382Z,54.22
2023-03-01T17:48:28.964Z,45.00
2023-03-01T17:50:30.569Z,44.92
2023-03-01T17:52:32.440Z,42.28
2023-03-01T17:54:34.217Z,40.78
2023-03-01T17:56:38.654Z,48.47
2023-03-01T17:58:40.187Z,58.25
2023-03-01T18:00:41.794Z,67.30
2023-03-01T18:02:44.284Z,72.20
2023-03-01T18:04:46.383Z,86.28
2023-03-01T18:06:48.022Z,142.65
2023-03-01T18:08:50.804Z,145.98
2023-03-01T18:10:58.845Z,104.88
2023-03-01T18:13:00.398Z,69.97
2023-03-01T18:15:02.128Z,65.32
2023-03-01T18:17:06.316Z,75.47
2023-03-01T18:19:07.986Z,97.25
2023-03-01T18:21:09.643Z,132.98
2023-03-01T18:23:11.176Z,159.02
2023-03-01T18:25:12.775Z,143.60
2023-03-01T18:27:14.547Z,123.70
2023-03-01T18:29:16.068Z,117.78
2023-03-01T18:31:21.706Z,98.80
2023-03-01T18:33:23.368Z,96.18
2023-03-01T18:35:25.116Z,95.90
2023-03-01T18:37:26.673Z,94.13
2023-03-01T18:39:28.250Z,99.97
2023-03-01T18:41:30.246Z,94.22
2023-03-01T18:43:32.858Z,88.32
2023-03-01T18:45:34.387Z,80.68
2023-03-01T18:47:35.906Z,70.22
2023-03-01T18:49:37.420Z,72.68
2023-03-01T18:51:39.651Z,81.28
2023-03-01T18:53:41.396Z,100.00
2023-03-01T18:55:42.938Z,105.13
2023-03-01T18:57:44.590Z,103.22
2023-03-01T18:59:46.220Z,100.30
2023-03-01T19:01:48.148Z,99.97
2023-03-01T19:03:50.828Z,103.47
2023-03-01T19:05:52.372Z,104.78
2023-03-01T19:07:54.089Z,112.78
2023-03-01T19:09:55.676Z,109.07
2023-03-01T19:11:59.287Z,113.40
2023-03-01T19:14:02.097Z,122.82
2023-03-01T19:16:11.326Z,119.15
2023-03-01T19:18:12.858Z,108.82
2023-03-01T19:20:14.416Z,105.18
2023-03-01T19:22:16.141Z,103.30
2023-03-01T19:24:17.824Z,107.65
2023-03-01T19:26:21.940Z,104.03
2023-03-01T19:28:23.466Z,94.22
2023-03-01T19:30:25.045Z,82.07
2023-03-01T19:32:26.767Z,74.63
2023-03-01T19:34:28.382Z,69.35
2023-03-01T19:36:34.939Z,57.70
2023-03-01T19:38:37.192Z,63.83
2023-03-01T19:40:39.096Z,50.95
2023-03-01T19:42:40.637Z,46.67
2023-03-01T19:44:42.225Z,43.58
2023-03-01T19:46:43.827Z,38.15
2023-03-01T19:48:45.461Z,46.95
2023-03-01T19:50:47.686Z,45.83
2023-03-01T19:52:49.405Z,48.03
2023-03-01T19:54:53.824Z,45.50
2023-03-01T19:56:57.393Z,44.28
2023-03-01T19:59:00.620Z,52.03
2023-03-01T20:01:02.269Z,52.20
2023-03-01T20:03:04.218Z,58.53
2023-03-01T20:05:06.087Z,81.95
2023-03-01T20:07:07.750Z,65.55
2023-03-01T20:09:20.979Z,57.75
2023-03-01T20:11:23.566Z,64.93
2023-03-01T20:13:25.509Z,71.43
2023-03-01T20:15:27.128Z,67.25
2023-03-01T20:17:28.852Z,55.90
2023-03-01T20:19:30.605Z,40.08
2023-03-01T20:21:33.614Z,63.28
2023-03-01T20:23:35.985Z,83.85
2023-03-01T20:25:37.682Z,81.35
2023-03-01T20:27:39.393Z,86.65
2023-03-01T20:29:41.069Z,100.97
2023-03-01T20:31:42.945Z,78.82
2023-03-01T20:33:44.848Z,80.47
2023-03-01T20:35:46.405Z,54.13
2023-03-01T20:37:48.066Z,46.55
2023-03-01T20:39:50.278Z,44.50
2023-03-01T20:41:51.778Z,41.28
2023-03-01T20:43:58.625Z,43.35
2023-03-01T20:46:06.853Z,43.00
2023-03-01T20:48:08.333Z,51.40
2023-03-01T20:50:10.700Z,45.70
2023-03-01T20:52:12.427Z,47.33
2023-03-01T20:54:14.234Z,41.22
2023-03-01T20:56:17.279Z,44.92
2023-03-01T20:58:18.916Z,50.60
2023-03-01T21:00:20.650Z,63.75
2023-03-01T21:02:22.228Z,65.95
2023-03-01T21:04:23.736Z,67.07
2023-03-01T21:06:25.356Z,57.75
2023-03-01T21:08:26.889Z,55.47
2023-03-01T21:10:32.888Z,59.33
2023-03-01T21:12:34.490Z,55.70
2023-03-01T21:14:42.377Z,51.90
2023-03-01T21:16:46.838Z,49.55
2023-03-01T21:18:48.947Z,89.93
2023-03-01T21:20:50.442Z,83.35
2023-03-01T21:22:51.976Z,85.65
2023-03-01T21:24:53.492Z,87.63
2023-03-01T21:26:55.016Z,72.28
2023-03-01T21:29:03.376Z,69.50
2023-03-01T21:31:11.850Z,62.92
2023-03-01T21:33:13.441Z,57.65
2023-03-01T21:35:15.309Z,55.65
2023-03-01T21:37:17.835Z,55.83
2023-03-01T21:39:19.463Z,66.07
2023-03-01T21:41:27.177Z,62.60
2023-03-01T21:43:28.664Z,69.03
2023-03-01T21:45:30.499Z,79.03
2023-03-01T21:47:32.107Z,72.57
2023-03-01T21:49:33.604Z,72.05
2023-03-01T21:51:36.589Z,61.80
2023-03-01T21:53:38.384Z,66.03
2023-03-01T21:55:46.904Z,58.83
2023-03-01T21:57:48.513Z,47.20
2023-03-01T21:59:50.070Z,70.22
2023-03-01T22:01:52.419Z,87.97
2023-03-01T22:03:54.793Z,89.72
2023-03-01T22:06:00.638Z,100.88
2023-03-01T22:08:03.341Z,102.68
2023-03-01T22:10:05.226Z,96.30
2023-03-01T22:12:06.982Z,80.65
2023-03-01T22:14:10.049Z,77.93
2023-03-01T22:16:11.743Z,75.20
2023-03-01T22:18:13.998Z,69.38
2023-03-01T22:20:15.978Z,73.50
2023-03-01T22:22:17.559Z,67.57
2023-03-01T22:24:22.250Z,71.97
2023-03-01T22:26:37.393Z,65.68
2023-03-01T22:28:38.954Z,46.80
2023-03-01T22:30:40.442Z,37.53
2023-03-01T22:32:42.746Z,28.35
2023-03-01T22:34:44.433Z,29.30
2023-03-01T22:36:46.382Z,29.23
2023-03-01T22:38:48.159Z,30.23
2023-03-01T22:41:01.135Z,34.28
2023-03-01T22:43:02.719Z,33.42
2023-03-01T22:45:04.652Z,42.28
2023-03-01T22:47:06.223Z,56.38
2023-03-01T22:49:08.094Z,54.22
2023-03-01T22:51:15.207Z,55.50
2023-03-01T22:53:17.166Z,49.28
2023-03-01T22:55:19.065Z,39.00
2023-03-01T22:57:20.597Z,37.00
2023-03-01T22:59:25.429Z,36.60
2023-03-01T23:01:28.017Z,36.08
2023-03-01T23:03:29.691Z,37.10
2023-03-01T23:05:31.323Z,41.38
2023-03-01T23:07:32.854Z,59.88
2023-03-01T23:09:37.476Z,55.78
2023-03-01T23:11:38.977Z,52.10
2023-03-01T23:13:40.891Z,43.13
2023-03-01T23:15:44.860Z,43.20
2023-03-01T23:17:46.489Z,45.90
2023-03-01T23:19:48.220Z,54.22
2023-03-01T23:21:54.570Z,55.85
2023-03-01T23:23:57.244Z,82.85
2023-03-01T23:25:58.879Z,65.68
2023-03-01T23:28:00.462Z,72.13
2023-03-01T23:30:02.033Z,75.00
2023-03-01T23:32:03.749Z,75.28
2023-03-01T23:34:05.286Z,72.30
2023-03-01T23:36:19.032Z,68.63
2023-03-01T23:38:21.100Z,76.85
2023-03-01T23:40:22.613Z,75.15
2023-03-01T23:42:24.155Z,81.05
2023-03-01T23:44:25.712Z,91.13
2023-03-01T23:46:30.102Z,93.28
2023-03-01T23:48:33.485Z,87.72
2023-03-01T23:50:41.757Z,75.57
2023-03-01T23:52:43.301Z,70.30
2023-03-01T23:54:44.863Z,64.68
2023-03-01T23:56:46.695Z,62.65
2023-03-01T23:58:50.516Z,66.22
